sensor_id;sensor_type;location;lat;lon;timestamp;P1;durP1;ratioP1;P2;durP2;ratioP2
68509;SDS011;55512;50.102;19.958;2023-05-10T00:01:58;8.20;;;3.70;;
68509;SDS011;55512;50.102;19.958;2023-05-10T00:04:23;9.50;;;4.50;;
68509;SDS011;55512;50.102;19.958;2023-05-10T00:06:52;9.20;;;4.60;;
68509;SDS011;55512;50.102;19.958;2023-05-10T00:09:18;9.10;;;4.00;;
68509;SDS011;55512;50.102;19.958;2023-05-10T00:11:44;7.60;;;4.10;;
68509;SDS011;55512;50.102;19.958;2023-05-10T00:14:11;9.80;;;3.80;;
68509;SDS011;55512;50.102;19.958;2023-05-10T00:16:37;7.50;;;4.00;;
68509;SDS011;55512;50.102;19.958;2023-05-10T00:19:02;8.70;;;4.50;;
68509;SDS011;55512;50.102;19.958;2023-05-10T00:21:28;8.70;;;4.10;;
68509;SDS011;55512;50.102;19.958;2023-05-10T00:23:54;9.00;;;3.80;;
68509;SDS011;55512;50.102;19.958;2023-05-10T00:26:20;7.70;;;4.20;;
68509;SDS011;55512;50.102;19.958;2023-05-10T00:28:46;7.90;;;3.70;;
68509;SDS011;55512;50.102;19.958;2023-05-10T00:31:11;9.70;;;3.90;;
68509;SDS011;55512;50.102;19.958;2023-05-10T00:33:37;8.10;;;4.10;;
68509;SDS011;55512;50.102;19.958;2023-05-10T00:36:02;9.60;;;4.20;;
68509;SDS011;55512;50.102;19.958;2023-05-10T00:38:28;8.60;;;4.20;;
68509;SDS011;55512;50.102;19.958;2023-05-10T00:40:54;7.60;;;3.80;;
68509;SDS011;55512;50.102;19.958;2023-05-10T00:43:20;10.40;;;4.60;;
68509;SDS011;55512;50.102;19.958;2023-05-10T00:45:45;8.40;;;4.10;;
68509;SDS011;55512;50.102;19.958;2023-05-10T00:48:11;8.80;;;3.60;;
68509;SDS011;55512;50.102;19.958;2023-05-10T00:50:37;8.10;;;4.30;;
68509;SDS011;55512;50.102;19.958;2023-05-10T00:53:03;8.90;;;3.70;;
68509;SDS011;55512;50.102;19.958;2023-05-10T00:55:30;8.50;;;3.80;;
68509;SDS011;55512;50.102;19.958;2023-05-10T00:57:56;9.20;;;4.10;;
68509;SDS011;55512;50.102;19.958;2023-05-10T01:00:22;8.80;;;4.50;;
68509;SDS011;55512;50.102;19.958;2023-05-10T01:02:48;9.60;;;3.80;;
68509;SDS011;55512;50.102;19.958;2023-05-10T01:05:15;10.30;;;4.00;;
68509;SDS011;55512;50.102;19.958;2023-05-10T01:07:40;8.10;;;3.80;;
68509;SDS011;55512;50.102;19.958;2023-05-10T01:10:07;7.20;;;3.40;;
68509;SDS011;55512;50.102;19.958;2023-05-10T01:12:38;8.00;;;3.60;;
68509;SDS011;55512;50.102;19.958;2023-05-10T01:15:08;9.60;;;3.80;;
68509;SDS011;55512;50.102;19.958;2023-05-10T01:17:37;7.50;;;3.10;;
68509;SDS011;55512;50.102;19.958;2023-05-10T01:20:06;8.20;;;4.10;;
68509;SDS011;55512;50.102;19.958;2023-05-10T01:29:26;7.40;;;4.00;;
68509;SDS011;55512;50.102;19.958;2023-05-10T01:35:10;6.60;;;3.40;;
68509;SDS011;55512;50.102;19.958;2023-05-10T01:40:52;9.40;;;3.70;;
68509;SDS011;55512;50.102;19.958;2023-05-10T01:43:34;7.60;;;3.90;;
68509;SDS011;55512;50.102;19.958;2023-05-10T01:46:10;10.10;;;4.30;;
68509;SDS011;55512;50.102;19.958;2023-05-10T01:48:47;7.80;;;3.20;;
68509;SDS011;55512;50.102;19.958;2023-05-10T01:51:21;7.20;;;3.40;;
68509;SDS011;55512;50.102;19.958;2023-05-10T01:53:54;7.30;;;3.40;;
68509;SDS011;55512;50.102;19.958;2023-05-10T01:56:26;7.70;;;3.60;;
68509;SDS011;55512;50.102;19.958;2023-05-10T01:58:54;9.40;;;3.90;;
68509;SDS011;55512;50.102;19.958;2023-05-10T02:01:21;6.80;;;3.40;;
68509;SDS011;55512;50.102;19.958;2023-05-10T02:03:49;6.80;;;2.40;;
68509;SDS011;55512;50.102;19.958;2023-05-10T02:06:18;7.00;;;3.10;;
68509;SDS011;55512;50.102;19.958;2023-05-10T02:08:46;10.50;;;3.80;;
68509;SDS011;55512;50.102;19.958;2023-05-10T02:11:14;7.40;;;3.20;;
68509;SDS011;55512;50.102;19.958;2023-05-10T02:13:41;7.50;;;2.80;;
68509;SDS011;55512;50.102;19.958;2023-05-10T02:16:09;8.40;;;3.60;;
68509;SDS011;55512;50.102;19.958;2023-05-10T02:18:36;8.30;;;3.70;;
68509;SDS011;55512;50.102;19.958;2023-05-10T02:21:04;8.70;;;3.80;;
68509;SDS011;55512;50.102;19.958;2023-05-10T02:23:30;8.20;;;3.50;;
68509;SDS011;55512;50.102;19.958;2023-05-10T02:25:56;7.80;;;3.20;;
68509;SDS011;55512;50.102;19.958;2023-05-10T02:28:24;7.80;;;3.30;;
68509;SDS011;55512;50.102;19.958;2023-05-10T02:30:52;7.00;;;3.00;;
68509;SDS011;55512;50.102;19.958;2023-05-10T02:33:19;4.20;;;1.90;;
68509;SDS011;55512;50.102;19.958;2023-05-10T02:35:46;6.50;;;3.20;;
68509;SDS011;55512;50.102;19.958;2023-05-10T02:38:14;7.40;;;2.40;;
68509;SDS011;55512;50.102;19.958;2023-05-10T02:40:41;7.80;;;3.50;;
68509;SDS011;55512;50.102;19.958;2023-05-10T02:43:12;8.00;;;3.40;;
68509;SDS011;55512;50.102;19.958;2023-05-10T02:45:40;9.10;;;3.60;;
68509;SDS011;55512;50.102;19.958;2023-05-10T02:48:07;8.80;;;3.50;;
68509;SDS011;55512;50.102;19.958;2023-05-10T02:50:33;7.30;;;3.10;;
68509;SDS011;55512;50.102;19.958;2023-05-10T02:53:03;6.50;;;3.10;;
68509;SDS011;55512;50.102;19.958;2023-05-10T02:55:37;7.40;;;3.10;;
68509;SDS011;55512;50.102;19.958;2023-05-10T02:58:05;7.50;;;3.00;;
68509;SDS011;55512;50.102;19.958;2023-05-10T03:00:31;9.20;;;3.30;;
68509;SDS011;55512;50.102;19.958;2023-05-10T03:02:57;9.90;;;3.80;;
68509;SDS011;55512;50.102;19.958;2023-05-10T03:05:23;7.30;;;3.00;;
68509;SDS011;55512;50.102;19.958;2023-05-10T03:07:49;10.20;;;3.30;;
68509;SDS011;55512;50.102;19.958;2023-05-10T03:10:16;9.60;;;3.50;;
68509;SDS011;55512;50.102;19.958;2023-05-10T03:13:03;8.00;;;3.10;;
68509;SDS011;55512;50.102;19.958;2023-05-10T03:16:05;9.10;;;4.10;;
68509;SDS011;55512;50.102;19.958;2023-05-10T03:18:48;7.30;;;3.60;;
68509;SDS011;55512;50.102;19.958;2023-05-10T03:21:22;8.70;;;3.60;;
68509;SDS011;55512;50.102;19.958;2023-05-10T03:23:58;7.30;;;3.00;;
68509;SDS011;55512;50.102;19.958;2023-05-10T03:26:28;7.50;;;3.00;;
68509;SDS011;55512;50.102;19.958;2023-05-10T03:28:55;8.60;;;3.40;;
68509;SDS011;55512;50.102;19.958;2023-05-10T03:31:24;8.40;;;4.00;;
68509;SDS011;55512;50.102;19.958;2023-05-10T03:33:51;7.80;;;3.30;;
68509;SDS011;55512;50.102;19.958;2023-05-10T03:36:18;6.80;;;3.20;;
68509;SDS011;55512;50.102;19.958;2023-05-10T03:38:44;9.30;;;3.80;;
68509;SDS011;55512;50.102;19.958;2023-05-10T03:41:10;8.40;;;3.60;;
68509;SDS011;55512;50.102;19.958;2023-05-10T03:43:36;8.10;;;3.20;;
68509;SDS011;55512;50.102;19.958;2023-05-10T03:46:05;7.50;;;3.40;;
68509;SDS011;55512;50.102;19.958;2023-05-10T03:48:32;9.00;;;3.70;;
68509;SDS011;55512;50.102;19.958;2023-05-10T03:50:57;9.00;;;3.30;;
68509;SDS011;55512;50.102;19.958;2023-05-10T03:53:23;9.00;;;3.60;;
68509;SDS011;55512;50.102;19.958;2023-05-10T03:55:49;9.20;;;3.90;;
68509;SDS011;55512;50.102;19.958;2023-05-10T03:58:14;6.80;;;3.10;;
68509;SDS011;55512;50.102;19.958;2023-05-10T04:00:40;8.10;;;3.30;;
68509;SDS011;55512;50.102;19.958;2023-05-10T04:03:10;8.50;;;3.20;;
68509;SDS011;55512;50.102;19.958;2023-05-10T04:05:36;7.40;;;3.80;;
68509;SDS011;55512;50.102;19.958;2023-05-10T04:08:03;7.20;;;3.30;;
68509;SDS011;55512;50.102;19.958;2023-05-10T04:10:29;7.90;;;3.40;;
68509;SDS011;55512;50.102;19.958;2023-05-10T04:12:56;6.60;;;3.10;;
68509;SDS011;55512;50.102;19.958;2023-05-10T04:15:23;6.90;;;3.20;;
68509;SDS011;55512;50.102;19.958;2023-05-10T04:17:49;8.90;;;3.50;;
68509;SDS011;55512;50.102;19.958;2023-05-10T04:20:15;8.60;;;3.90;;
68509;SDS011;55512;50.102;19.958;2023-05-10T04:22:41;10.70;;;3.40;;
68509;SDS011;55512;50.102;19.958;2023-05-10T04:25:07;10.50;;;3.70;;
68509;SDS011;55512;50.102;19.958;2023-05-10T04:27:33;11.70;;;4.00;;
68509;SDS011;55512;50.102;19.958;2023-05-10T04:29:58;8.00;;;3.50;;
68509;SDS011;55512;50.102;19.958;2023-05-10T04:32:24;7.70;;;3.60;;
68509;SDS011;55512;50.102;19.958;2023-05-10T04:34:49;8.00;;;3.60;;
68509;SDS011;55512;50.102;19.958;2023-05-10T04:37:16;10.10;;;3.60;;
68509;SDS011;55512;50.102;19.958;2023-05-10T04:39:42;8.50;;;3.60;;
68509;SDS011;55512;50.102;19.958;2023-05-10T04:42:08;7.60;;;3.80;;
68509;SDS011;55512;50.102;19.958;2023-05-10T04:44:34;9.90;;;4.10;;
68509;SDS011;55512;50.102;19.958;2023-05-10T04:47:00;8.10;;;3.40;;
68509;SDS011;55512;50.102;19.958;2023-05-10T04:49:26;9.70;;;4.00;;
68509;SDS011;55512;50.102;19.958;2023-05-10T04:51:51;9.70;;;3.70;;
68509;SDS011;55512;50.102;19.958;2023-05-10T04:54:17;8.10;;;3.70;;
68509;SDS011;55512;50.102;19.958;2023-05-10T04:56:42;8.30;;;3.60;;
68509;SDS011;55512;50.102;19.958;2023-05-10T04:59:08;9.60;;;3.80;;
68509;SDS011;55512;50.102;19.958;2023-05-10T05:01:33;10.20;;;3.70;;
68509;SDS011;55512;50.102;19.958;2023-05-10T05:03:59;10.20;;;3.50;;
68509;SDS011;55512;50.102;19.958;2023-05-10T05:06:24;11.90;;;4.40;;
68509;SDS011;55512;50.102;19.958;2023-05-10T05:08:51;8.80;;;4.30;;
68509;SDS011;55512;50.102;19.958;2023-05-10T05:11:17;9.00;;;3.90;;
68509;SDS011;55512;50.102;19.958;2023-05-10T05:13:42;9.90;;;3.90;;
68509;SDS011;55512;50.102;19.958;2023-05-10T05:16:08;11.70;;;4.10;;
68509;SDS011;55512;50.102;19.958;2023-05-10T05:18:34;10.30;;;3.90;;
68509;SDS011;55512;50.102;19.958;2023-05-10T05:20:59;10.10;;;4.20;;
68509;SDS011;55512;50.102;19.958;2023-05-10T05:23:25;9.60;;;4.30;;
68509;SDS011;55512;50.102;19.958;2023-05-10T05:25:52;10.10;;;3.90;;
68509;SDS011;55512;50.102;19.958;2023-05-10T05:28:19;7.50;;;3.40;;
68509;SDS011;55512;50.102;19.958;2023-05-10T05:30:45;7.20;;;3.20;;
68509;SDS011;55512;50.102;19.958;2023-05-10T05:33:13;10.00;;;4.00;;
68509;SDS011;55512;50.102;19.958;2023-05-10T05:35:39;8.50;;;4.10;;
68509;SDS011;55512;50.102;19.958;2023-05-10T05:38:04;9.40;;;3.90;;
68509;SDS011;55512;50.102;19.958;2023-05-10T05:40:30;8.80;;;3.30;;
68509;SDS011;55512;50.102;19.958;2023-05-10T05:42:55;8.40;;;4.30;;
68509;SDS011;55512;50.102;19.958;2023-05-10T05:45:21;8.40;;;3.60;;
68509;SDS011;55512;50.102;19.958;2023-05-10T05:47:47;8.20;;;3.90;;
68509;SDS011;55512;50.102;19.958;2023-05-10T05:50:12;8.60;;;3.60;;
68509;SDS011;55512;50.102;19.958;2023-05-10T05:52:38;9.10;;;3.80;;
68509;SDS011;55512;50.102;19.958;2023-05-10T05:55:04;9.70;;;3.90;;
68509;SDS011;55512;50.102;19.958;2023-05-10T05:57:29;7.60;;;3.70;;
68509;SDS011;55512;50.102;19.958;2023-05-10T05:59:55;12.50;;;4.30;;
68509;SDS011;55512;50.102;19.958;2023-05-10T06:02:21;10.10;;;3.80;;
68509;SDS011;55512;50.102;19.958;2023-05-10T06:04:46;10.30;;;4.00;;
68509;SDS011;55512;50.102;19.958;2023-05-10T06:07:11;8.60;;;3.70;;
68509;SDS011;55512;50.102;19.958;2023-05-10T06:09:37;4.00;;;1.60;;
68509;SDS011;55512;50.102;19.958;2023-05-10T06:12:03;12.20;;;5.00;;
68509;SDS011;55512;50.102;19.958;2023-05-10T06:14:28;7.00;;;3.40;;
68509;SDS011;55512;50.102;19.958;2023-05-10T06:16:54;9.20;;;4.50;;
68509;SDS011;55512;50.102;19.958;2023-05-10T06:19:19;10.00;;;4.10;;
68509;SDS011;55512;50.102;19.958;2023-05-10T06:21:44;9.30;;;3.80;;
68509;SDS011;55512;50.102;19.958;2023-05-10T06:24:10;9.20;;;3.90;;
68509;SDS011;55512;50.102;19.958;2023-05-10T06:26:35;8.30;;;4.00;;
68509;SDS011;55512;50.102;19.958;2023-05-10T06:29:01;8.70;;;3.90;;
68509;SDS011;55512;50.102;19.958;2023-05-10T06:31:28;12.20;;;5.20;;
68509;SDS011;55512;50.102;19.958;2023-05-10T06:33:53;8.50;;;3.90;;
68509;SDS011;55512;50.102;19.958;2023-05-10T06:36:18;9.10;;;3.50;;
68509;SDS011;55512;50.102;19.958;2023-05-10T06:38:44;8.00;;;3.70;;
68509;SDS011;55512;50.102;19.958;2023-05-10T06:41:10;7.20;;;3.60;;
68509;SDS011;55512;50.102;19.958;2023-05-10T06:43:35;11.70;;;4.10;;
68509;SDS011;55512;50.102;19.958;2023-05-10T06:46:05;13.00;;;4.60;;
68509;SDS011;55512;50.102;19.958;2023-05-10T06:48:31;8.90;;;4.00;;
68509;SDS011;55512;50.102;19.958;2023-05-10T06:50:57;8.30;;;4.30;;
68509;SDS011;55512;50.102;19.958;2023-05-10T06:53:22;11.80;;;4.50;;
68509;SDS011;55512;50.102;19.958;2023-05-10T06:55:49;8.90;;;3.70;;
68509;SDS011;55512;50.102;19.958;2023-05-10T06:58:14;8.70;;;3.90;;
68509;SDS011;55512;50.102;19.958;2023-05-10T07:00:40;7.90;;;3.90;;
68509;SDS011;55512;50.102;19.958;2023-05-10T07:03:09;10.50;;;4.20;;
68509;SDS011;55512;50.102;19.958;2023-05-10T07:05:35;18.00;;;4.90;;
68509;SDS011;55512;50.102;19.958;2023-05-10T07:08:08;10.70;;;3.70;;
68509;SDS011;55512;50.102;19.958;2023-05-10T07:10:34;14.00;;;4.00;;
68509;SDS011;55512;50.102;19.958;2023-05-10T07:12:59;10.50;;;4.80;;
68509;SDS011;55512;50.102;19.958;2023-05-10T07:15:26;8.60;;;4.10;;
68509;SDS011;55512;50.102;19.958;2023-05-10T07:17:52;14.10;;;4.90;;
68509;SDS011;55512;50.102;19.958;2023-05-10T07:20:17;13.30;;;5.00;;
68509;SDS011;55512;50.102;19.958;2023-05-10T07:22:43;11.40;;;4.40;;
68509;SDS011;55512;50.102;19.958;2023-05-10T07:25:09;10.30;;;4.00;;
68509;SDS011;55512;50.102;19.958;2023-05-10T07:27:34;8.30;;;3.60;;
68509;SDS011;55512;50.102;19.958;2023-05-10T07:30:00;11.10;;;4.40;;
68509;SDS011;55512;50.102;19.958;2023-05-10T07:32:26;11.90;;;4.10;;
68509;SDS011;55512;50.102;19.958;2023-05-10T07:34:52;10.00;;;4.00;;
68509;SDS011;55512;50.102;19.958;2023-05-10T07:37:17;9.40;;;3.40;;
68509;SDS011;55512;50.102;19.958;2023-05-10T07:39:43;10.10;;;4.10;;
68509;SDS011;55512;50.102;19.958;2023-05-10T07:42:09;10.10;;;4.30;;
68509;SDS011;55512;50.102;19.958;2023-05-10T07:44:34;13.00;;;5.30;;
68509;SDS011;55512;50.102;19.958;2023-05-10T07:47:00;10.00;;;4.00;;
68509;SDS011;55512;50.102;19.958;2023-05-10T07:49:25;10.80;;;4.00;;
68509;SDS011;55512;50.102;19.958;2023-05-10T07:51:51;8.90;;;3.50;;
68509;SDS011;55512;50.102;19.958;2023-05-10T07:54:16;7.50;;;3.70;;
68509;SDS011;55512;50.102;19.958;2023-05-10T07:56:42;8.10;;;3.50;;
68509;SDS011;55512;50.102;19.958;2023-05-10T07:59:15;7.30;;;3.50;;
68509;SDS011;55512;50.102;19.958;2023-05-10T08:01:43;6.80;;;3.30;;
68509;SDS011;55512;50.102;19.958;2023-05-10T08:04:08;6.70;;;3.40;;
68509;SDS011;55512;50.102;19.958;2023-05-10T08:06:34;12.10;;;3.90;;
68509;SDS011;55512;50.102;19.958;2023-05-10T08:09:00;10.60;;;4.60;;
68509;SDS011;55512;50.102;19.958;2023-05-10T08:11:26;10.30;;;4.40;;
68509;SDS011;55512;50.102;19.958;2023-05-10T08:13:53;8.70;;;3.60;;
68509;SDS011;55512;50.102;19.958;2023-05-10T08:16:19;9.30;;;3.30;;
68509;SDS011;55512;50.102;19.958;2023-05-10T08:18:45;7.70;;;3.50;;
68509;SDS011;55512;50.102;19.958;2023-05-10T08:21:12;10.60;;;4.00;;
68509;SDS011;55512;50.102;19.958;2023-05-10T08:23:38;8.60;;;3.40;;
68509;SDS011;55512;50.102;19.958;2023-05-10T08:26:04;9.60;;;3.50;;
68509;SDS011;55512;50.102;19.958;2023-05-10T08:28:30;8.20;;;3.00;;
68509;SDS011;55512;50.102;19.958;2023-05-10T08:30:56;7.60;;;3.30;;
68509;SDS011;55512;50.102;19.958;2023-05-10T08:33:21;7.80;;;2.90;;
68509;SDS011;55512;50.102;19.958;2023-05-10T08:35:47;6.50;;;3.00;;
68509;SDS011;55512;50.102;19.958;2023-05-10T08:38:13;6.10;;;3.00;;
68509;SDS011;55512;50.102;19.958;2023-05-10T08:40:41;13.00;;;3.70;;
68509;SDS011;55512;50.102;19.958;2023-05-10T08:43:10;7.20;;;3.00;;
68509;SDS011;55512;50.102;19.958;2023-05-10T08:45:41;7.90;;;3.20;;
68509;SDS011;55512;50.102;19.958;2023-05-10T08:48:10;8.20;;;3.10;;
68509;SDS011;55512;50.102;19.958;2023-05-10T08:50:39;8.70;;;3.20;;
68509;SDS011;55512;50.102;19.958;2023-05-10T08:53:09;10.10;;;3.70;;
68509;SDS011;55512;50.102;19.958;2023-05-10T08:55:37;9.00;;;3.50;;
68509;SDS011;55512;50.102;19.958;2023-05-10T08:58:05;7.30;;;2.80;;
68509;SDS011;55512;50.102;19.958;2023-05-10T09:00:32;7.30;;;2.50;;
68509;SDS011;55512;50.102;19.958;2023-05-10T09:02:59;6.90;;;2.70;;
68509;SDS011;55512;50.102;19.958;2023-05-10T09:05:25;6.30;;;2.90;;
68509;SDS011;55512;50.102;19.958;2023-05-10T09:07:52;8.10;;;2.80;;
68509;SDS011;55512;50.102;19.958;2023-05-10T09:10:18;7.60;;;2.40;;
68509;SDS011;55512;50.102;19.958;2023-05-10T09:12:45;8.30;;;3.50;;
68509;SDS011;55512;50.102;19.958;2023-05-10T09:15:15;6.40;;;2.40;;
68509;SDS011;55512;50.102;19.958;2023-05-10T09:17:42;7.40;;;3.10;;
68509;SDS011;55512;50.102;19.958;2023-05-10T09:20:09;5.20;;;2.30;;
68509;SDS011;55512;50.102;19.958;2023-05-10T09:22:35;5.70;;;2.30;;
68509;SDS011;55512;50.102;19.958;2023-05-10T09:25:09;6.20;;;2.40;;
68509;SDS011;55512;50.102;19.958;2023-05-10T09:27:37;7.00;;;2.50;;
68509;SDS011;55512;50.102;19.958;2023-05-10T09:30:05;7.60;;;2.70;;
68509;SDS011;55512;50.102;19.958;2023-05-10T09:32:38;8.30;;;2.80;;
68509;SDS011;55512;50.102;19.958;2023-05-10T09:35:12;9.00;;;2.40;;
68509;SDS011;55512;50.102;19.958;2023-05-10T09:37:40;8.60;;;2.80;;
68509;SDS011;55512;50.102;19.958;2023-05-10T09:45:27;5.10;;;2.00;;
68509;SDS011;55512;50.102;19.958;2023-05-10T09:47:56;5.10;;;2.10;;
68509;SDS011;55512;50.102;19.958;2023-05-10T09:50:22;6.40;;;2.40;;
68509;SDS011;55512;50.102;19.958;2023-05-10T09:55:17;7.00;;;2.20;;
68509;SDS011;55512;50.102;19.958;2023-05-10T09:57:47;4.90;;;1.70;;
68509;SDS011;55512;50.102;19.958;2023-05-10T10:00:20;6.30;;;2.10;;
68509;SDS011;55512;50.102;19.958;2023-05-10T10:02:59;5.20;;;2.10;;
68509;SDS011;55512;50.102;19.958;2023-05-10T10:05:29;8.40;;;2.60;;
68509;SDS011;55512;50.102;19.958;2023-05-10T10:07:59;6.90;;;2.20;;
68509;SDS011;55512;50.102;19.958;2023-05-10T10:10:26;7.20;;;2.30;;
68509;SDS011;55512;50.102;19.958;2023-05-10T10:12:54;4.80;;;2.10;;
68509;SDS011;55512;50.102;19.958;2023-05-10T10:15:21;6.70;;;2.00;;
68509;SDS011;55512;50.102;19.958;2023-05-10T10:17:49;4.70;;;2.10;;
68509;SDS011;55512;50.102;19.958;2023-05-10T10:20:16;9.60;;;2.90;;
68509;SDS011;55512;50.102;19.958;2023-05-10T10:22:43;5.90;;;2.20;;
68509;SDS011;55512;50.102;19.958;2023-05-10T10:25:10;5.40;;;2.20;;
68509;SDS011;55512;50.102;19.958;2023-05-10T10:30:41;5.70;;;2.00;;
68509;SDS011;55512;50.102;19.958;2023-05-10T10:33:30;6.30;;;2.00;;
68509;SDS011;55512;50.102;19.958;2023-05-10T10:36:04;7.50;;;2.50;;
68509;SDS011;55512;50.102;19.958;2023-05-10T10:41:27;5.10;;;2.10;;
68509;SDS011;55512;50.102;19.958;2023-05-10T10:47:23;6.90;;;2.50;;
68509;SDS011;55512;50.102;19.958;2023-05-10T10:52:40;6.00;;;1.90;;
68509;SDS011;55512;50.102;19.958;2023-05-10T10:55:19;6.30;;;2.00;;
68509;SDS011;55512;50.102;19.958;2023-05-10T10:57:52;8.10;;;2.50;;
68509;SDS011;55512;50.102;19.958;2023-05-10T11:00:33;6.90;;;2.50;;
68509;SDS011;55512;50.102;19.958;2023-05-10T11:03:09;5.50;;;2.20;;
68509;SDS011;55512;50.102;19.958;2023-05-10T11:05:43;7.60;;;2.10;;
68509;SDS011;55512;50.102;19.958;2023-05-10T11:13:47;5.30;;;2.00;;
68509;SDS011;55512;50.102;19.958;2023-05-10T11:16:20;7.60;;;2.10;;
68509;SDS011;55512;50.102;19.958;2023-05-10T11:18:52;4.80;;;2.00;;
68509;SDS011;55512;50.102;19.958;2023-05-10T11:21:28;4.70;;;1.90;;
68509;SDS011;55512;50.102;19.958;2023-05-10T11:23:59;7.40;;;2.40;;
68509;SDS011;55512;50.102;19.958;2023-05-10T11:26:30;5.90;;;2.20;;
68509;SDS011;55512;50.102;19.958;2023-05-10T11:28:57;4.90;;;1.90;;
68509;SDS011;55512;50.102;19.958;2023-05-10T11:31:27;4.20;;;1.40;;
68509;SDS011;55512;50.102;19.958;2023-05-10T11:33:58;8.10;;;2.10;;
68509;SDS011;55512;50.102;19.958;2023-05-10T11:36:29;4.40;;;1.60;;
68509;SDS011;55512;50.102;19.958;2023-05-10T11:38:58;5.30;;;1.80;;
68509;SDS011;55512;50.102;19.958;2023-05-10T11:41:24;4.20;;;1.60;;
68509;SDS011;55512;50.102;19.958;2023-05-10T11:43:53;4.60;;;1.40;;
68509;SDS011;55512;50.102;19.958;2023-05-10T11:46:21;5.70;;;1.90;;
68509;SDS011;55512;50.102;19.958;2023-05-10T11:48:53;4.30;;;1.70;;
68509;SDS011;55512;50.102;19.958;2023-05-10T11:51:24;9.00;;;2.20;;
68509;SDS011;55512;50.102;19.958;2023-05-10T11:53:53;6.40;;;2.10;;
68509;SDS011;55512;50.102;19.958;2023-05-10T11:56:20;5.10;;;1.80;;
68509;SDS011;55512;50.102;19.958;2023-05-10T11:58:53;8.10;;;2.40;;
68509;SDS011;55512;50.102;19.958;2023-05-10T12:01:21;4.90;;;2.00;;
68509;SDS011;55512;50.102;19.958;2023-05-10T12:03:49;9.80;;;2.60;;
68509;SDS011;55512;50.102;19.958;2023-05-10T12:06:16;14.40;;;2.90;;
68509;SDS011;55512;50.102;19.958;2023-05-10T12:08:47;12.80;;;2.40;;
68509;SDS011;55512;50.102;19.958;2023-05-10T12:11:17;4.60;;;2.00;;
68509;SDS011;55512;50.102;19.958;2023-05-10T12:13:44;7.50;;;2.30;;
68509;SDS011;55512;50.102;19.958;2023-05-10T12:16:17;5.10;;;2.00;;
68509;SDS011;55512;50.102;19.958;2023-05-10T12:18:58;6.20;;;2.00;;
68509;SDS011;55512;50.102;19.958;2023-05-10T12:21:25;4.50;;;2.00;;
68509;SDS011;55512;50.102;19.958;2023-05-10T12:23:54;5.00;;;2.00;;
68509;SDS011;55512;50.102;19.958;2023-05-10T12:26:27;5.50;;;1.80;;
68509;SDS011;55512;50.102;19.958;2023-05-10T12:28:54;5.80;;;1.90;;
68509;SDS011;55512;50.102;19.958;2023-05-10T12:31:20;10.00;;;2.20;;
68509;SDS011;55512;50.102;19.958;2023-05-10T12:33:46;3.70;;;1.50;;
68509;SDS011;55512;50.102;19.958;2023-05-10T12:36:15;6.20;;;2.40;;
68509;SDS011;55512;50.102;19.958;2023-05-10T12:38:42;6.60;;;2.20;;
68509;SDS011;55512;50.102;19.958;2023-05-10T12:41:12;11.10;;;2.50;;
68509;SDS011;55512;50.102;19.958;2023-05-10T12:43:39;6.40;;;2.50;;
68509;SDS011;55512;50.102;19.958;2023-05-10T12:46:10;5.90;;;2.40;;
68509;SDS011;55512;50.102;19.958;2023-05-10T12:48:43;6.00;;;2.30;;
68509;SDS011;55512;50.102;19.958;2023-05-10T12:51:10;6.90;;;2.20;;
68509;SDS011;55512;50.102;19.958;2023-05-10T12:53:40;4.50;;;2.20;;
68509;SDS011;55512;50.102;19.958;2023-05-10T12:56:06;6.70;;;2.10;;
68509;SDS011;55512;50.102;19.958;2023-05-10T12:58:32;5.40;;;1.80;;
68509;SDS011;55512;50.102;19.958;2023-05-10T13:00:58;4.60;;;2.00;;
68509;SDS011;55512;50.102;19.958;2023-05-10T13:03:24;6.10;;;2.30;;
68509;SDS011;55512;50.102;19.958;2023-05-10T13:05:50;9.20;;;2.40;;
68509;SDS011;55512;50.102;19.958;2023-05-10T13:08:16;6.00;;;2.00;;
68509;SDS011;55512;50.102;19.958;2023-05-10T13:10:41;10.60;;;2.40;;
68509;SDS011;55512;50.102;19.958;2023-05-10T13:13:07;5.50;;;1.80;;
68509;SDS011;55512;50.102;19.958;2023-05-10T13:15:33;8.50;;;2.70;;
68509;SDS011;55512;50.102;19.958;2023-05-10T13:17:59;4.80;;;2.20;;
68509;SDS011;55512;50.102;19.958;2023-05-10T13:20:25;5.70;;;1.90;;
68509;SDS011;55512;50.102;19.958;2023-05-10T13:22:52;4.50;;;2.00;;
68509;SDS011;55512;50.102;19.958;2023-05-10T13:25:17;5.90;;;2.20;;
68509;SDS011;55512;50.102;19.958;2023-05-10T13:27:43;7.50;;;2.40;;
68509;SDS011;55512;50.102;19.958;2023-05-10T13:30:09;7.30;;;2.50;;
68509;SDS011;55512;50.102;19.958;2023-05-10T13:32:36;7.10;;;2.50;;
68509;SDS011;55512;50.102;19.958;2023-05-10T13:35:02;8.00;;;2.20;;
68509;SDS011;55512;50.102;19.958;2023-05-10T13:37:30;6.80;;;2.10;;
68509;SDS011;55512;50.102;19.958;2023-05-10T13:39:56;7.30;;;2.00;;
68509;SDS011;55512;50.102;19.958;2023-05-10T13:42:22;10.30;;;3.00;;
68509;SDS011;55512;50.102;19.958;2023-05-10T13:44:49;9.70;;;2.20;;
68509;SDS011;55512;50.102;19.958;2023-05-10T13:47:15;6.60;;;1.90;;
68509;SDS011;55512;50.102;19.958;2023-05-10T13:49:41;5.40;;;1.90;;
68509;SDS011;55512;50.102;19.958;2023-05-10T13:52:06;11.70;;;2.00;;
68509;SDS011;55512;50.102;19.958;2023-05-10T13:54:36;5.80;;;2.40;;
68509;SDS011;55512;50.102;19.958;2023-05-10T14:00:40;5.70;;;1.90;;
68509;SDS011;55512;50.102;19.958;2023-05-10T14:03:06;9.70;;;2.10;;
68509;SDS011;55512;50.102;19.958;2023-05-10T14:05:32;13.20;;;2.80;;
68509;SDS011;55512;50.102;19.958;2023-05-10T14:07:58;10.10;;;2.80;;
68509;SDS011;55512;50.102;19.958;2023-05-10T14:10:23;6.40;;;2.50;;
68509;SDS011;55512;50.102;19.958;2023-05-10T14:12:50;4.60;;;2.20;;
68509;SDS011;55512;50.102;19.958;2023-05-10T14:15:15;4.90;;;2.00;;
68509;SDS011;55512;50.102;19.958;2023-05-10T14:17:41;5.50;;;2.30;;
68509;SDS011;55512;50.102;19.958;2023-05-10T14:20:07;6.80;;;2.00;;
68509;SDS011;55512;50.102;19.958;2023-05-10T14:22:34;5.80;;;2.00;;
68509;SDS011;55512;50.102;19.958;2023-05-10T14:25:00;5.60;;;2.10;;
68509;SDS011;55512;50.102;19.958;2023-05-10T14:27:26;5.10;;;2.00;;
68509;SDS011;55512;50.102;19.958;2023-05-10T14:29:51;8.00;;;2.20;;
68509;SDS011;55512;50.102;19.958;2023-05-10T14:32:18;6.90;;;2.20;;
68509;SDS011;55512;50.102;19.958;2023-05-10T14:34:44;12.20;;;2.90;;
68509;SDS011;55512;50.102;19.958;2023-05-10T14:37:10;8.10;;;2.40;;
68509;SDS011;55512;50.102;19.958;2023-05-10T14:39:39;7.60;;;2.40;;
68509;SDS011;55512;50.102;19.958;2023-05-10T14:42:05;9.80;;;2.30;;
68509;SDS011;55512;50.102;19.958;2023-05-10T14:44:30;5.70;;;2.10;;
68509;SDS011;55512;50.102;19.958;2023-05-10T14:46:56;5.90;;;2.10;;
68509;SDS011;55512;50.102;19.958;2023-05-10T14:49:22;5.60;;;2.20;;
68509;SDS011;55512;50.102;19.958;2023-05-10T14:51:50;6.50;;;2.90;;
68509;SDS011;55512;50.102;19.958;2023-05-10T14:57:32;5.20;;;2.70;;
68509;SDS011;55512;50.102;19.958;2023-05-10T14:59:57;6.40;;;2.70;;
68509;SDS011;55512;50.102;19.958;2023-05-10T15:02:23;7.40;;;2.70;;
68509;SDS011;55512;50.102;19.958;2023-05-10T15:04:48;6.40;;;2.90;;
68509;SDS011;55512;50.102;19.958;2023-05-10T15:07:14;4.80;;;2.60;;
68509;SDS011;55512;50.102;19.958;2023-05-10T15:09:41;6.00;;;2.70;;
68509;SDS011;55512;50.102;19.958;2023-05-10T15:12:07;5.10;;;2.60;;
68509;SDS011;55512;50.102;19.958;2023-05-10T15:14:32;9.20;;;3.10;;
68509;SDS011;55512;50.102;19.958;2023-05-10T15:16:58;4.30;;;2.50;;
68509;SDS011;55512;50.102;19.958;2023-05-10T15:19:24;6.30;;;3.70;;
68509;SDS011;55512;50.102;19.958;2023-05-10T15:21:50;5.80;;;3.20;;